KJAQ

Westover Field Amador County Airport

Jackson, California, USA
METAR KJAQ 141735Z AUTO 13011G20KT 10SM BKN110 13/00 A3005 RMK AO1 T01251004
Observed Flight Rules
Dec-14 @ 17:35 UTC (16 minutes ago) Visual Flight Rules
Wind Visibility Clouds
130° at 11 knots
 Gusting to 20 knots
10 miles
  • Broken at 11,000' AGL
Temperatures Readings
Current 13°C / 55°F
Dewpoint -0°C / 32°F
Humidity 41%
Altimeter 30.05" Hg
Pressure 1018 hPa
Elevation 512
METAR KJAQ 141735Z AUTO 13011G20KT 10SM BKN110 13/00 A3005 RMK AO1 T01251004
Observed Flight Rules
Dec-14 @ 17:35 UTC
(16 minutes ago)
VFR
Wind Visibility
130° at 11 knots
 Gusting to 20 knots
10 miles
Clouds
  • Broken at 11,000' AGL
Temperature Dewpoint
13°C / 55°F -0°C / 32°F
Humidity Altimeter Pressure
41% 30.05" Hg 1018 hPa